Twin Oaks, Oklahoma
Current Conditions -  °F | °C
As of 2:15 PM on Sunday 23 Nov 2014 (Local Time) from KSLG Reporting Station
Clear Clear  
Wind Chill: 66°   Ceiling: Unl
Heat Index: 66°   Visibility: 10mi
Dew Point: 54°   Wind: 12mph
Humidity: 64%   Direction: 180°S
Pressure: 29.31"   Gusts: NA
Location:  36.21°N, 94.85°W
Report Text: KSLG 232015Z AUTO 18010KT 10SM CLR 19/12 A2931 RMK AO1
Loading
Personal Weather Stations






























Interactive Weather Map New forecast layout! Learn more

10-Day Weather Forecast

Advertisements
Track Severe Weather on mobile